createdAt,value
2022-11-17T00:01:08.601Z,93.40
2022-11-17T00:06:09.714Z,93.38
2022-11-17T00:11:11.079Z,93.39
2022-11-17T00:16:17.335Z,93.44
2022-11-17T00:21:18.833Z,93.50
2022-11-17T00:26:24.602Z,93.54
2022-11-17T00:31:48.526Z,93.58
2022-11-17T00:36:52.243Z,93.64
2022-11-17T00:41:53.476Z,93.64
2022-11-17T00:46:54.739Z,93.65
2022-11-17T00:51:57.229Z,93.68
2022-11-17T00:56:58.391Z,93.69
2022-11-17T01:01:59.686Z,93.72
2022-11-17T01:07:01.073Z,93.75
2022-11-17T01:12:02.421Z,93.76
2022-11-17T01:17:03.649Z,93.73
2022-11-17T01:22:05.009Z,93.70
2022-11-17T01:27:06.082Z,93.70
2022-11-17T01:32:07.237Z,93.75
2022-11-17T01:37:20.624Z,93.81
2022-11-17T01:42:24.298Z,93.84
2022-11-17T01:47:57.683Z,93.88
2022-11-17T01:53:04.939Z,93.92
2022-11-17T01:58:10.590Z,93.96
2022-11-17T02:03:12.542Z,94.02
2022-11-17T02:08:15.413Z,94.03
2022-11-17T02:13:16.930Z,94.06
2022-11-17T02:18:18.636Z,94.06
2022-11-17T02:23:47.967Z,94.06
2022-11-17T02:28:59.860Z,94.08
2022-11-17T02:34:24.298Z,94.10
2022-11-17T02:39:41.510Z,94.06
2022-11-17T02:44:52.117Z,94.00
2022-11-17T02:49:59.782Z,93.97
2022-11-17T02:55:02.255Z,93.94
2022-11-17T03:00:10.438Z,93.97
2022-11-17T03:05:22.557Z,93.97
2022-11-17T03:10:32.461Z,93.94
2022-11-17T03:15:54.765Z,93.91
2022-11-17T03:21:09.735Z,93.87
2022-11-17T03:26:15.179Z,93.83
2022-11-17T03:31:18.624Z,93.80
2022-11-17T03:36:25.522Z,93.79
2022-11-17T03:41:31.049Z,93.72
2022-11-17T03:46:36.411Z,93.69
2022-11-17T03:51:37.779Z,93.63
2022-11-17T03:57:00.499Z,93.59
2022-11-17T04:02:01.969Z,93.53
2022-11-17T04:07:03.308Z,93.52
2022-11-17T04:12:23.450Z,93.44
2022-11-17T04:17:24.537Z,93.33
2022-11-17T04:22:25.609Z,93.22
2022-11-17T04:27:49.657Z,93.13
2022-11-17T04:32:50.730Z,92.99
2022-11-17T04:37:51.907Z,92.98
2022-11-17T04:42:53.075Z,93.01
2022-11-17T04:47:54.152Z,93.03
2022-11-17T04:52:55.197Z,93.07
2022-11-17T04:57:56.340Z,93.04
2022-11-17T05:02:57.509Z,93.00
2022-11-17T05:07:58.774Z,93.00
2022-11-17T05:13:18.869Z,92.95
2022-11-17T05:18:20.031Z,92.86
2022-11-17T05:23:39.725Z,92.84
2022-11-17T05:28:41.296Z,92.81
2022-11-17T05:33:48.193Z,92.87
2022-11-17T05:38:49.865Z,92.87
2022-11-17T05:43:51.637Z,92.84
2022-11-17T05:48:53.042Z,92.81
2022-11-17T05:53:54.168Z,92.83
2022-11-17T05:59:02.557Z,92.76
2022-11-17T06:04:06.850Z,92.62
2022-11-17T06:09:07.938Z,92.58
2022-11-17T06:14:09.044Z,92.59
2022-11-17T06:19:18.096Z,92.57
2022-11-17T06:24:19.717Z,92.40
2022-11-17T06:29:20.960Z,92.06
2022-11-17T06:34:22.068Z,91.90
2022-11-17T06:39:23.247Z,91.64
2022-11-17T06:44:24.320Z,91.61
2022-11-17T06:49:25.419Z,91.58
2022-11-17T06:54:26.790Z,91.66
2022-11-17T06:59:27.907Z,91.49
2022-11-17T07:04:29.007Z,91.32
2022-11-17T07:09:30.286Z,91.13
2022-11-17T07:14:31.408Z,91.02
2022-11-17T07:19:32.788Z,90.93
2022-11-17T07:24:34.009Z,90.74
2022-11-17T07:29:35.272Z,90.63
2022-11-17T07:34:36.429Z,90.34
2022-11-17T07:39:37.690Z,90.28
2022-11-17T07:44:38.859Z,90.15
2022-11-17T07:49:40.119Z,89.92
2022-11-17T07:54:41.445Z,89.69
2022-11-17T07:59:42.633Z,89.35
2022-11-17T08:04:43.804Z,89.48
2022-11-17T08:09:44.963Z,89.16
2022-11-17T08:14:46.941Z,88.54
2022-11-17T08:19:48.101Z,88.03
2022-11-17T08:24:49.368Z,87.74
2022-11-17T08:29:50.527Z,87.31
2022-11-17T08:34:51.689Z,87.37
2022-11-17T08:39:52.869Z,87.27
2022-11-17T08:44:54.118Z,86.76
2022-11-17T08:49:55.381Z,86.26
2022-11-17T08:54:57.290Z,86.02
2022-11-17T08:59:58.609Z,85.50
2022-11-17T09:04:59.772Z,85.35
2022-11-17T09:10:01.646Z,85.35
2022-11-17T09:15:04.546Z,85.07
2022-11-17T09:20:06.537Z,85.43
2022-11-17T09:25:13.189Z,85.64
2022-11-17T09:30:15.152Z,84.74
2022-11-17T09:35:17.694Z,83.86
2022-11-17T09:40:20.542Z,83.43
2022-11-17T09:45:30.996Z,82.75
2022-11-17T09:50:37.967Z,81.88
2022-11-17T09:55:40.351Z,81.26
2022-11-17T10:00:46.712Z,81.30
2022-11-17T10:05:48.721Z,80.73
2022-11-17T10:10:51.528Z,81.03
2022-11-17T10:16:02.926Z,81.09
2022-11-17T10:21:06.100Z,80.30
2022-11-17T10:26:12.816Z,79.95
2022-11-17T10:31:16.746Z,79.48
2022-11-17T10:36:30.905Z,79.47
2022-11-17T10:41:36.989Z,79.75
2022-11-17T10:47:23.316Z,80.75
2022-11-17T10:52:24.461Z,79.76
2022-11-17T10:57:26.759Z,79.30
2022-11-17T11:02:36.226Z,79.54
2022-11-17T11:07:38.871Z,79.75
2022-11-17T11:13:18.566Z,79.61
2022-11-17T11:18:20.644Z,79.47
2022-11-17T11:23:24.878Z,79.66
2022-11-17T11:28:35.253Z,79.13
2022-11-17T11:33:41.064Z,78.91
2022-11-17T11:39:20.486Z,78.44
2022-11-17T11:44:40.076Z,78.53
2022-11-17T11:49:50.243Z,78.34
2022-11-17T11:55:23.766Z,78.04
2022-11-17T12:00:24.951Z,77.79
2022-11-17T12:05:28.951Z,77.80
2022-11-17T12:10:33.593Z,77.84
2022-11-17T12:15:36.086Z,77.39
2022-11-17T12:20:50.868Z,76.94
2022-11-17T12:25:56.394Z,76.76
2022-11-17T12:31:05.058Z,77.67
2022-11-17T12:36:30.404Z,77.60
2022-11-17T12:41:54.884Z,77.14
2022-11-17T12:47:13.674Z,77.59
2022-11-17T12:52:29.274Z,77.97
2022-11-17T12:57:33.914Z,77.69
2022-11-17T13:03:08.253Z,78.71
2022-11-17T13:08:23.543Z,79.44
2022-11-17T13:13:24.803Z,79.55
2022-11-17T13:18:33.240Z,79.01
2022-11-17T13:23:34.517Z,79.30
2022-11-17T13:28:35.764Z,79.98
2022-11-17T13:33:40.171Z,80.27
2022-11-17T13:38:52.133Z,79.96
2022-11-17T13:43:55.120Z,80.54
2022-11-17T13:48:57.059Z,80.46
2022-11-17T13:54:17.325Z,79.43
2022-11-17T13:59:25.490Z,79.63
2022-11-17T14:04:26.972Z,80.39
2022-11-17T14:09:31.230Z,79.88
2022-11-17T14:14:38.430Z,80.77
2022-11-17T14:19:39.701Z,80.38
2022-11-17T14:24:40.854Z,80.64
2022-11-17T14:29:42.018Z,80.44
2022-11-17T14:34:43.182Z,80.32
2022-11-17T14:39:44.444Z,80.47
2022-11-17T14:44:45.703Z,80.48
2022-11-17T14:49:46.966Z,80.33
2022-11-17T14:54:48.124Z,79.93
2022-11-17T14:59:49.203Z,80.07
2022-11-17T15:04:51.555Z,79.87
2022-11-17T15:09:53.348Z,80.15
2022-11-17T15:14:56.916Z,79.92
2022-11-17T15:19:58.130Z,79.71
2022-11-17T15:24:59.501Z,80.25
2022-11-17T15:30:00.688Z,80.12
2022-11-17T15:35:01.918Z,80.44
2022-11-17T15:40:04.765Z,80.41
2022-11-17T15:45:09.606Z,80.45
2022-11-17T15:50:10.827Z,80.43
2022-11-17T15:55:11.919Z,80.63
2022-11-17T16:00:13.929Z,80.19
2022-11-17T16:05:15.229Z,80.47
2022-11-17T16:10:16.601Z,80.41
2022-11-17T16:15:17.696Z,80.92
2022-11-17T16:20:19.098Z,80.76
2022-11-17T16:25:20.402Z,81.40
2022-11-17T16:30:21.647Z,81.60
2022-11-17T16:35:22.804Z,81.78
2022-11-17T16:40:23.963Z,82.31
2022-11-17T16:45:25.129Z,82.54
2022-11-17T16:50:26.397Z,81.87
2022-11-17T16:55:27.549Z,81.78
2022-11-17T17:00:28.708Z,82.13
2022-11-17T17:05:29.972Z,82.90
2022-11-17T17:10:32.463Z,82.10
2022-11-17T17:15:33.834Z,81.45
2022-11-17T17:20:35.140Z,81.60
2022-11-17T17:25:36.255Z,81.33
2022-11-17T17:30:37.519Z,81.57
2022-11-17T17:35:38.679Z,81.51
2022-11-17T17:40:39.841Z,81.51
2022-11-17T17:45:40.998Z,81.71
2022-11-17T17:50:42.260Z,81.49
2022-11-17T17:55:43.423Z,81.91
2022-11-17T18:00:46.736Z,82.18
2022-11-17T18:05:47.998Z,82.06
2022-11-17T18:10:49.261Z,81.49
2022-11-17T18:15:50.518Z,81.07
2022-11-17T18:21:21.380Z,81.14
2022-11-17T18:26:25.727Z,81.30
2022-11-17T18:31:29.478Z,81.66
2022-11-17T18:36:31.621Z,81.24
2022-11-17T18:41:33.501Z,81.00
2022-11-17T18:46:34.657Z,80.74
2022-11-17T18:51:36.738Z,80.69
2022-11-17T18:56:38.197Z,80.43
2022-11-17T19:01:41.316Z,80.42
2022-11-17T19:06:42.607Z,80.20
2022-11-17T19:11:43.819Z,80.40
2022-11-17T19:16:45.388Z,80.18
2022-11-17T19:21:46.671Z,80.04
2022-11-17T19:26:47.834Z,80.01
2022-11-17T19:31:49.096Z,80.08
2022-11-17T19:36:50.358Z,79.89
2022-11-17T19:41:52.749Z,80.72
2022-11-17T19:46:53.906Z,80.70
2022-11-17T19:51:55.064Z,80.09
2022-11-17T19:56:56.639Z,80.08
2022-11-17T20:01:57.859Z,79.81
2022-11-17T20:06:59.313Z,79.31
2022-11-17T20:12:00.529Z,79.50
2022-11-17T20:17:01.692Z,79.68
2022-11-17T20:22:02.953Z,79.69
2022-11-17T20:27:04.131Z,79.78
2022-11-17T20:32:05.288Z,79.68
2022-11-17T20:37:06.430Z,79.35
2022-11-17T20:42:07.597Z,79.26
2022-11-17T20:47:08.854Z,79.49
2022-11-17T20:52:13.360Z,79.83
2022-11-17T20:57:14.771Z,79.35
2022-11-17T21:02:15.942Z,79.69
2022-11-17T21:07:17.156Z,79.59
2022-11-17T21:12:18.332Z,80.06
2022-11-17T21:17:38.254Z,80.44
2022-11-17T21:22:39.476Z,80.24
2022-11-17T21:27:40.621Z,80.33
2022-11-17T21:32:42.009Z,80.64
2022-11-17T21:37:43.091Z,80.32
2022-11-17T21:42:45.010Z,80.35
2022-11-17T21:47:46.537Z,80.45
2022-11-17T21:52:47.630Z,80.72
2022-11-17T21:57:51.570Z,81.60
2022-11-17T22:02:52.724Z,81.27
2022-11-17T22:07:53.871Z,81.43
2022-11-17T22:13:00.431Z,81.27
2022-11-17T22:18:01.804Z,81.72
2022-11-17T22:23:02.898Z,82.64
2022-11-17T22:28:04.121Z,82.14
2022-11-17T22:33:05.240Z,81.89
2022-11-17T22:38:06.343Z,82.42
2022-11-17T22:43:14.466Z,82.34
2022-11-17T22:48:17.683Z,82.69
2022-11-17T22:53:18.931Z,82.56
2022-11-17T22:58:20.418Z,82.55
2022-11-17T23:03:22.119Z,82.40
2022-11-17T23:08:23.439Z,82.49
2022-11-17T23:13:35.491Z,83.12
2022-11-17T23:18:36.718Z,83.77
2022-11-17T23:23:39.720Z,83.55
2022-11-17T23:28:42.442Z,84.35
2022-11-17T23:33:45.893Z,84.79
2022-11-17T23:38:49.038Z,84.71
2022-11-17T23:43:51.945Z,84.59
2022-11-17T23:48:53.833Z,84.88
2022-11-17T23:53:58.559Z,85.36
2022-11-17T23:59:00.338Z,85.74
